Time;durP1;ratioP1;P1;durP2;ratioP2;P2;SDS_P1;SDS_P2;PMS_P1;PMS_P2;Temp;Humidity;BMP_temperature;BMP_pressure;BME280_temperature;BME280_humidity;BME280_pressure;Samples;Min_cycle;Max_cycle;Signal;HPM_P1;HPM_P2
2023/10/02 00:01:17;;;;;;;16.17;8.40;;;;;;;;;;5049098;28;20026;-68
2023/10/02 00:03:44;;;;;;;18.35;7.80;;;;;;;;;;5045228;28;20891;-68
2023/10/02 00:06:10;;;;;;;14.00;7.97;;;;;;;;;;5039936;28;20039;-67
2023/10/02 00:08:51;;;;;;;15.35;8.30;;;;;;;;;;5021156;28;20028;-67
2023/10/02 00:14:19;;;;;;;16.98;9.40;;;;;;;;;;5042715;28;20098;-67
2023/10/02 00:17:04;;;;;;;18.60;9.70;;;;;;;;;;5049675;28;20036;-67
2023/10/02 00:19:30;;;;;;;14.90;8.93;;;;;;;;;;5051286;28;21061;-67
2023/10/02 00:22:05;;;;;;;17.15;8.77;;;;;;;;;;5048152;28;20075;-67
2023/10/02 00:24:35;;;;;;;18.17;8.30;;;;;;;;;;5038953;28;20029;-67
2023/10/02 00:27:01;;;;;;;15.57;8.35;;;;;;;;;;5037918;28;20021;-67
2023/10/02 00:29:26;;;;;;;13.70;8.48;;;;;;;;;;5035510;28;20077;-67
2023/10/02 00:31:52;;;;;;;17.00;8.30;;;;;;;;;;5041189;28;20028;-67
2023/10/02 00:34:30;;;;;;;13.32;7.70;;;;;;;;;;5044623;28;20885;-67
2023/10/02 00:36:55;;;;;;;15.43;8.45;;;;;;;;;;5048598;28;20055;-67
2023/10/02 00:39:33;;;;;;;15.35;8.63;;;;;;;;;;5049737;28;20028;-68
2023/10/02 00:42:17;;;;;;;16.90;8.73;;;;;;;;;;5049062;28;20025;-68
2023/10/02 00:44:56;;;;;;;17.33;8.88;;;;;;;;;;5048130;28;20233;-68
2023/10/02 00:47:41;;;;;;;19.77;9.35;;;;;;;;;;5035020;28;20059;-68
2023/10/02 00:50:19;;;;;;;14.10;8.63;;;;;;;;;;5048078;28;20032;-68
2023/10/02 00:52:49;;;;;;;16.02;8.55;;;;;;;;;;5045442;28;20089;-68
2023/10/02 00:55:15;;;;;;;17.27;8.40;;;;;;;;;;5045362;28;20016;-68
2023/10/02 00:57:41;;;;;;;15.27;8.85;;;;;;;;;;5040702;28;20048;-68
2023/10/02 01:00:17;;;;;;;18.00;8.55;;;;;;;;;;5048651;28;20036;-68
2023/10/02 01:02:57;;;;;;;17.20;8.95;;;;;;;;;;5045664;28;20072;-68
2023/10/02 01:05:27;;;;;;;18.58;9.05;;;;;;;;;;5041724;28;20020;-68
2023/10/02 01:07:53;;;;;;;17.95;8.80;;;;;;;;;;5048759;28;20028;-68
2023/10/02 01:10:19;;;;;;;14.68;8.82;;;;;;;;;;5046044;28;20021;-68
2023/10/02 01:12:53;;;;;;;18.60;9.10;;;;;;;;;;5042961;28;20085;-68
2023/10/02 01:15:26;;;;;;;15.93;8.85;;;;;;;;;;5047142;28;20036;-67
2023/10/02 01:17:51;;;;;;;15.15;7.95;;;;;;;;;;5048139;28;20889;-67
2023/10/02 01:20:35;;;;;;;15.02;8.50;;;;;;;;;;5042997;28;20034;-67
2023/10/02 01:23:17;;;;;;;17.75;9.50;;;;;;;;;;5047677;28;20139;-67
2023/10/02 01:25:49;;;;;;;18.83;8.52;;;;;;;;;;5047934;28;20863;-67
2023/10/02 01:28:15;;;;;;;14.43;8.27;;;;;;;;;;5037641;28;20046;-68
2023/10/02 01:30:41;;;;;;;13.45;8.20;;;;;;;;;;5046850;28;20036;-68
2023/10/02 01:33:32;;;;;;;20.20;8.10;;;;;;;;;;5043155;28;20032;-67
2023/10/02 01:35:57;;;;;;;14.55;8.02;;;;;;;;;;5036019;28;20039;-68
2023/10/02 01:38:26;;;;;;;16.23;8.40;;;;;;;;;;5041303;28;20913;-68
2023/10/02 01:41:02;;;;;;;16.50;8.10;;;;;;;;;;5045951;28;20877;-68
2023/10/02 01:43:27;;;;;;;16.77;8.15;;;;;;;;;;5042204;28;20826;-68
2023/10/02 01:46:00;;;;;;;19.52;9.02;;;;;;;;;;5037672;28;20067;-68
2023/10/02 01:48:38;;;;;;;15.00;7.47;;;;;;;;;;5045206;28;20020;-68
2023/10/02 01:51:15;;;;;;;14.35;8.57;;;;;;;;;;5047158;28;21047;-68
2023/10/02 01:53:45;;;;;;;15.23;8.48;;;;;;;;;;5037178;28;20035;-68
2023/10/02 01:56:11;;;;;;;17.23;8.52;;;;;;;;;;5047698;28;20055;-68
2023/10/02 01:58:40;;;;;;;13.85;7.82;;;;;;;;;;5039600;28;20016;-68
2023/10/02 02:01:06;;;;;;;16.75;8.63;;;;;;;;;;5049692;28;20057;-68
2023/10/02 02:03:31;;;;;;;14.73;8.40;;;;;;;;;;5036812;28;21044;-68
2023/10/02 02:05:58;;;;;;;14.38;8.73;;;;;;;;;;5035100;28;20049;-68
2023/10/02 02:08:23;;;;;;;18.25;8.80;;;;;;;;;;5037143;28;20024;-68
2023/10/02 02:10:50;;;;;;;19.02;9.48;;;;;;;;;;5048050;28;20923;-68
2023/10/02 02:13:16;;;;;;;15.80;9.15;;;;;;;;;;5047010;28;20027;-68
2023/10/02 02:15:45;;;;;;;15.45;8.18;;;;;;;;;;5047367;28;20909;-68
2023/10/02 02:18:11;;;;;;;17.27;8.82;;;;;;;;;;5047079;28;20038;-68
2023/10/02 02:20:57;;;;;;;16.55;9.20;;;;;;;;;;5047619;28;20052;-69
2023/10/02 02:23:24;;;;;;;16.63;8.90;;;;;;;;;;5047394;28;20031;-67
2023/10/02 02:25:49;;;;;;;14.82;8.45;;;;;;;;;;5047509;28;20023;-67
2023/10/02 02:28:15;;;;;;;13.85;8.18;;;;;;;;;;5044728;28;20024;-67
2023/10/02 02:30:43;;;;;;;15.40;7.97;;;;;;;;;;5035473;28;20977;-67
2023/10/02 02:33:09;;;;;;;17.08;9.20;;;;;;;;;;5036522;28;20331;-68
2023/10/02 02:35:39;;;;;;;14.63;8.27;;;;;;;;;;5036107;28;20028;-68
2023/10/02 02:38:13;;;;;;;17.05;8.40;;;;;;;;;;5045395;28;20028;-67
2023/10/02 02:40:40;;;;;;;15.50;8.32;;;;;;;;;;5035724;28;20119;-67
2023/10/02 02:43:13;;;;;;;17.60;8.25;;;;;;;;;;5045073;28;20024;-67
2023/10/02 02:45:38;;;;;;;17.63;8.80;;;;;;;;;;5037708;28;20035;-68
2023/10/02 02:48:06;;;;;;;13.60;7.47;;;;;;;;;;5039203;28;20123;-67
2023/10/02 02:50:41;;;;;;;13.80;7.65;;;;;;;;;;5049904;28;20028;-68
2023/10/02 02:53:40;;;;;;;18.33;9.38;;;;;;;;;;5050021;28;20101;-69
2023/10/02 02:56:15;;;;;;;14.52;8.48;;;;;;;;;;5046071;28;20032;-69
2023/10/02 02:58:40;;;;;;;16.75;8.88;;;;;;;;;;5039373;28;20020;-69
2023/10/02 03:01:11;;;;;;;18.30;9.02;;;;;;;;;;5043841;28;20137;-69
2023/10/02 03:03:41;;;;;;;14.80;8.40;;;;;;;;;;5051236;28;20143;-69
2023/10/02 03:06:13;;;;;;;17.33;8.15;;;;;;;;;;5048773;28;20072;-69
2023/10/02 03:08:38;;;;;;;14.25;8.57;;;;;;;;;;5050043;28;20024;-68
2023/10/02 03:11:06;;;;;;;14.52;7.57;;;;;;;;;;5051011;28;20166;-69
2023/10/02 03:13:34;;;;;;;14.60;7.90;;;;;;;;;;5043812;28;20027;-69
2023/10/02 03:16:08;;;;;;;17.00;8.65;;;;;;;;;;5042284;28;20023;-68
2023/10/02 03:18:36;;;;;;;17.50;7.80;;;;;;;;;;5040738;28;20031;-68
2023/10/02 03:23:33;;;;;;;15.52;8.88;;;;;;;;;;5045586;28;20209;-67
2023/10/02 03:25:59;;;;;;;14.52;7.53;;;;;;;;;;5052690;28;20020;-67
2023/10/02 03:28:27;;;;;;;16.48;8.80;;;;;;;;;;5048666;28;20051;-68
2023/10/02 03:30:55;;;;;;;16.27;8.45;;;;;;;;;;5041707;28;20119;-67
2023/10/02 03:33:20;;;;;;;16.88;8.63;;;;;;;;;;5041316;28;20091;-70
2023/10/02 03:35:58;;;;;;;15.18;8.45;;;;;;;;;;5052874;28;20914;-67
2023/10/02 03:38:26;;;;;;;13.40;7.30;;;;;;;;;;5040346;28;20024;-68
2023/10/02 03:41:01;;;;;;;18.92;8.88;;;;;;;;;;5052338;28;20028;-67
2023/10/02 03:43:42;;;;;;;16.98;8.65;;;;;;;;;;5039053;28;20111;-69
2023/10/02 03:46:13;;;;;;;17.65;9.10;;;;;;;;;;5035220;28;20072;-69
2023/10/02 03:48:38;;;;;;;17.17;8.90;;;;;;;;;;5051975;28;20020;-69
2023/10/02 03:51:04;;;;;;;16.85;9.32;;;;;;;;;;5037948;28;20029;-69
2023/10/02 03:53:29;;;;;;;17.42;8.57;;;;;;;;;;5050840;28;20127;-69
2023/10/02 03:58:47;;;;;;;16.60;8.27;;;;;;;;;;5035301;28;21134;-68
2023/10/02 04:01:15;;;;;;;16.10;9.48;;;;;;;;;;5047186;28;20032;-69
2023/10/02 04:03:55;;;;;;;15.73;8.07;;;;;;;;;;5049354;28;20024;-69
2023/10/02 04:06:33;;;;;;;21.40;10.10;;;;;;;;;;5050712;28;20038;-69
2023/10/02 04:09:24;;;;;;;16.48;8.30;;;;;;;;;;5050609;28;20086;-69
2023/10/02 04:11:53;;;;;;;17.42;8.52;;;;;;;;;;5052327;28;20959;-69
2023/10/02 04:14:31;;;;;;;15.98;8.85;;;;;;;;;;5043318;28;20028;-69
2023/10/02 04:17:09;;;;;;;15.43;8.82;;;;;;;;;;5048165;28;20357;-70
2023/10/02 04:19:35;;;;;;;18.55;8.98;;;;;;;;;;5047949;28;20139;-67
2023/10/02 04:22:06;;;;;;;16.30;8.77;;;;;;;;;;5047599;28;20020;-67
2023/10/02 04:24:50;;;;;;;18.83;8.60;;;;;;;;;;5045408;28;20197;-67
2023/10/02 04:27:18;;;;;;;17.83;9.20;;;;;;;;;;5045473;28;20024;-68
2023/10/02 04:30:06;;;;;;;21.20;9.75;;;;;;;;;;5050837;28;20073;-68
2023/10/02 04:32:32;;;;;;;15.45;8.98;;;;;;;;;;5044233;28;20032;-67
2023/10/02 04:34:57;;;;;;;17.17;8.27;;;;;;;;;;5054548;28;20081;-67
2023/10/02 04:37:22;;;;;;;15.30;9.37;;;;;;;;;;5050503;28;20950;-68
2023/10/02 04:40:14;;;;;;;20.92;10.30;;;;;;;;;;5039563;28;21072;-68
2023/10/02 04:42:57;;;;;;;12.77;7.60;;;;;;;;;;5043216;28;20889;-68
2023/10/02 04:45:25;;;;;;;15.25;8.60;;;;;;;;;;5050954;28;20082;-68
2023/10/02 04:47:55;;;;;;;15.05;8.43;;;;;;;;;;5050084;28;20153;-68
2023/10/02 04:52:58;;;;;;;15.13;8.63;;;;;;;;;;5050612;28;20952;-69
2023/10/02 04:55:24;;;;;;;18.33;9.20;;;;;;;;;;5048742;28;20024;-68
2023/10/02 04:58:02;;;;;;;21.20;8.77;;;;;;;;;;5042876;28;20181;-68
2023/10/02 05:00:32;;;;;;;17.20;8.88;;;;;;;;;;5048867;28;20138;-68
2023/10/02 05:03:17;;;;;;;18.92;9.27;;;;;;;;;;5046050;28;20038;-69
2023/10/02 05:05:47;;;;;;;16.67;8.75;;;;;;;;;;5051342;28;20020;-68
2023/10/02 05:08:19;;;;;;;17.40;9.32;;;;;;;;;;5047806;28;20155;-67
2023/10/02 05:10:47;;;;;;;17.70;9.07;;;;;;;;;;5044499;28;20135;-68
2023/10/02 05:13:12;;;;;;;18.00;8.70;;;;;;;;;;5044447;28;20024;-68
2023/10/02 05:16:06;;;;;;;14.70;8.82;;;;;;;;;;5045395;28;20031;-68
2023/10/02 05:18:23;;;;;;;15.30;8.27;;;;;;;;;;5049064;28;20032;-68
2023/10/02 05:20:48;;;;;;;16.77;8.95;;;;;;;;;;5045383;28;20768;-68
2023/10/02 05:23:13;;;;;;;15.50;9.43;;;;;;;;;;5049857;28;20036;-68
2023/10/02 05:25:41;;;;;;;17.33;8.48;;;;;;;;;;5042216;28;20282;-68
2023/10/02 05:28:07;;;;;;;17.98;9.63;;;;;;;;;;5044350;28;20031;-68
2023/10/02 05:30:42;;;;;;;17.90;8.43;;;;;;;;;;5050245;28;20866;-68
2023/10/02 05:33:07;;;;;;;15.77;8.30;;;;;;;;;;5049906;28;20971;-68
2023/10/02 05:35:33;;;;;;;18.83;9.40;;;;;;;;;;5042022;28;20033;-67
2023/10/02 05:37:58;;;;;;;19.38;8.60;;;;;;;;;;5027865;28;20777;-67
2023/10/02 05:48:12;;;;;;;13.07;7.50;;;;;;;;;;5046704;28;20546;-68
2023/10/02 05:50:40;;;;;;;16.83;9.35;;;;;;;;;;5050484;28;20516;-68
2023/10/02 05:53:06;;;;;;;17.88;8.85;;;;;;;;;;5041202;28;20029;-69
2023/10/02 05:55:56;;;;;;;21.30;9.65;;;;;;;;;;5041922;28;20755;-67
2023/10/02 05:58:27;;;;;;;17.30;9.52;;;;;;;;;;5043004;28;20062;-67
2023/10/02 06:00:52;;;;;;;18.17;10.05;;;;;;;;;;5038964;28;20040;-67
2023/10/02 06:03:18;;;;;;;14.65;8.80;;;;;;;;;;5046965;28;20841;-67
2023/10/02 06:06:06;;;;;;;21.97;9.97;;;;;;;;;;5041059;28;20130;-68
2023/10/02 06:08:33;;;;;;;19.35;9.35;;;;;;;;;;5046302;28;20278;-69
2023/10/02 06:11:08;;;;;;;19.70;10.18;;;;;;;;;;5047527;28;20131;-68
2023/10/02 06:13:37;;;;;;;19.33;9.32;;;;;;;;;;5050489;28;20028;-68
2023/10/02 06:16:03;;;;;;;18.77;10.43;;;;;;;;;;5039796;28;20127;-68
2023/10/02 06:18:28;;;;;;;18.25;9.27;;;;;;;;;;5046424;28;20020;-68
2023/10/02 06:21:00;;;;;;;20.05;9.65;;;;;;;;;;5043401;28;20056;-68
2023/10/02 06:23:29;;;;;;;19.38;9.43;;;;;;;;;;5048020;28;20890;-68
2023/10/02 06:25:55;;;;;;;18.15;9.60;;;;;;;;;;5048467;28;20020;-68
2023/10/02 06:28:23;;;;;;;18.05;10.23;;;;;;;;;;5042187;28;20035;-68
2023/10/02 06:30:49;;;;;;;19.40;10.20;;;;;;;;;;5038456;28;20127;-68
2023/10/02 06:33:17;;;;;;;17.50;10.18;;;;;;;;;;5048501;28;20020;-68
2023/10/02 06:35:45;;;;;;;17.33;9.48;;;;;;;;;;5048533;28;20020;-68
2023/10/02 06:38:16;;;;;;;19.05;10.27;;;;;;;;;;5051075;28;20073;-69
2023/10/02 06:40:55;;;;;;;20.33;10.55;;;;;;;;;;5041468;28;20020;-68
2023/10/02 06:43:28;;;;;;;17.98;10.70;;;;;;;;;;5050896;28;20040;-68
2023/10/02 06:46:06;;;;;;;19.00;9.57;;;;;;;;;;5045948;28;20898;-68
2023/10/02 06:48:32;;;;;;;20.77;10.02;;;;;;;;;;5039113;28;20085;-68
2023/10/02 06:50:59;;;;;;;18.38;10.05;;;;;;;;;;5040811;28;20031;-68
2023/10/02 06:53:24;;;;;;;21.88;10.07;;;;;;;;;;5047987;28;20065;-68
2023/10/02 06:55:58;;;;;;;21.35;10.93;;;;;;;;;;5050483;28;20897;-68
2023/10/02 06:58:24;;;;;;;;;;;;;;;;;;5047250;28;20028;-68
2023/10/02 07:00:55;;;;;;;20.60;10.02;;;;;;;;;;5041102;28;19966;-68
2023/10/02 07:03:21;;;;;;;18.88;10.13;;;;;;;;;;5042687;28;20147;-68
2023/10/02 07:05:48;;;;;;;23.23;10.73;;;;;;;;;;5044685;28;20057;-68
2023/10/02 07:08:22;;;;;;;22.50;11.40;;;;;;;;;;5044269;28;20021;-68
2023/10/02 07:10:48;;;;;;;15.98;10.35;;;;;;;;;;5035557;28;20059;-68
2023/10/02 07:13:23;;;;;;;18.60;9.90;;;;;;;;;;5038243;28;20019;-68
2023/10/02 07:15:53;;;;;;;21.30;10.55;;;;;;;;;;5047553;28;20036;-68
2023/10/02 07:18:18;;;;;;;20.48;10.73;;;;;;;;;;5045503;28;20131;-67
2023/10/02 07:20:43;;;;;;;21.15;11.15;;;;;;;;;;5047248;28;20024;-67
2023/10/02 07:23:19;;;;;;;18.42;10.20;;;;;;;;;;5046886;28;20031;-67
2023/10/02 07:25:53;;;;;;;19.23;10.25;;;;;;;;;;5044108;28;20028;-68
2023/10/02 07:28:20;;;;;;;25.50;11.13;;;;;;;;;;5038649;28;20020;-68
2023/10/02 07:30:46;;;;;;;18.98;10.63;;;;;;;;;;5053774;28;20144;-67
2023/10/02 07:33:12;;;;;;;19.95;11.05;;;;;;;;;;5049534;28;20892;-67
2023/10/02 07:35:37;;;;;;;19.88;11.13;;;;;;;;;;5046510;28;20033;-68
2023/10/02 07:38:08;;;;;;;18.73;10.23;;;;;;;;;;5044194;28;20805;-67
2023/10/02 07:40:48;;;;;;;22.48;11.57;;;;;;;;;;5040542;28;20666;-68
2023/10/02 07:43:18;;;;;;;20.15;10.40;;;;;;;;;;5043531;28;20983;-67
2023/10/02 07:45:44;;;;;;;16.77;9.98;;;;;;;;;;5059736;28;20028;-68
2023/10/02 07:48:10;;;;;;;20.17;10.52;;;;;;;;;;5050652;28;20896;-67
2023/10/02 07:50:39;;;;;;;17.33;10.15;;;;;;;;;;5046582;28;20908;-68
2023/10/02 07:53:06;;;;;;;22.08;11.00;;;;;;;;;;5042977;28;20507;-68
2023/10/02 07:55:43;;;;;;;19.23;10.50;;;;;;;;;;5058484;28;20030;-68
2023/10/02 07:58:09;;;;;;;21.70;10.90;;;;;;;;;;5039617;28;20201;-67
2023/10/02 08:00:43;;;;;;;17.90;10.00;;;;;;;;;;5043603;28;20024;-68
2023/10/02 08:05:57;;;;;;;17.65;10.27;;;;;;;;;;5048014;28;20074;-67
2023/10/02 08:08:25;;;;;;;16.45;10.45;;;;;;;;;;5049549;28;20016;-68
2023/10/02 08:10:50;;;;;;;17.55;10.05;;;;;;;;;;5049756;28;20241;-67
2023/10/02 08:13:16;;;;;;;16.38;10.75;;;;;;;;;;5049719;28;20038;-67
2023/10/02 08:15:44;;;;;;;19.33;10.88;;;;;;;;;;5049021;28;20145;-68
2023/10/02 08:18:17;;;;;;;19.23;9.63;;;;;;;;;;5039187;28;20028;-68
2023/10/02 08:20:43;;;;;;;18.60;10.25;;;;;;;;;;5031086;28;20024;-68
2023/10/02 08:23:23;;;;;;;18.63;10.55;;;;;;;;;;5038800;28;20033;-68
2023/10/02 08:26:10;;;;;;;16.83;9.38;;;;;;;;;;5047788;28;20854;-68
2023/10/02 08:28:36;;;;;;;17.98;10.65;;;;;;;;;;5029833;28;20032;-68
2023/10/02 08:31:01;;;;;;;16.17;10.07;;;;;;;;;;5047543;28;20222;-67
2023/10/02 08:33:27;;;;;;;18.67;10.27;;;;;;;;;;5044337;28;20610;-68
2023/10/02 08:35:52;;;;;;;19.10;10.45;;;;;;;;;;5037923;28;20042;-68
2023/10/02 08:38:24;;;;;;;22.42;11.27;;;;;;;;;;5046258;28;20878;-68
2023/10/02 08:41:03;;;;;;;22.20;10.95;;;;;;;;;;5045298;28;20024;-67
2023/10/02 08:43:32;;;;;;;21.75;11.10;;;;;;;;;;5037472;28;20102;-68
2023/10/02 08:45:58;;;;;;;19.67;10.52;;;;;;;;;;5048243;28;20801;-68
2023/10/02 08:48:25;;;;;;;22.08;11.25;;;;;;;;;;5044041;28;20027;-67
2023/10/02 08:50:50;;;;;;;19.33;10.18;;;;;;;;;;5043345;28;20481;-67
2023/10/02 08:53:20;;;;;;;19.65;10.70;;;;;;;;;;5048862;28;20024;-67
2023/10/02 08:58:19;;;;;;;17.20;10.55;;;;;;;;;;5038986;28;20898;-68
2023/10/02 09:01:02;;;;;;;20.08;10.10;;;;;;;;;;5047021;28;20032;-67
2023/10/02 09:03:30;;;;;;;19.05;11.05;;;;;;;;;;5046032;28;20047;-68
2023/10/02 09:06:24;;;;;;;18.03;10.40;;;;;;;;;;5046319;28;20254;-67
2023/10/02 09:09:13;;;;;;;20.25;10.98;;;;;;;;;;5036353;28;20323;-67
2023/10/02 09:11:34;;;;;;;20.25;10.52;;;;;;;;;;5043933;28;20130;-68
2023/10/02 09:16:45;;;;;;;26.20;11.63;;;;;;;;;;5034035;28;20132;-67
2023/10/02 09:19:28;;;;;;;21.58;11.45;;;;;;;;;;5040631;28;20044;-68
2023/10/02 09:22:06;;;;;;;19.08;9.98;;;;;;;;;;5028622;28;20090;-68
2023/10/02 09:24:31;;;;;;;17.98;10.50;;;;;;;;;;5046819;28;20040;-68
2023/10/02 09:27:20;;;;;;;19.75;11.80;;;;;;;;;;5047099;28;20333;-68
2023/10/02 09:29:43;;;;;;;21.15;10.88;;;;;;;;;;5046455;28;20038;-68
2023/10/02 09:32:21;;;;;;;20.08;10.82;;;;;;;;;;5048162;28;20028;-68
2023/10/02 09:35:08;;;;;;;19.50;10.48;;;;;;;;;;5043098;28;20557;-67
2023/10/02 09:37:35;;;;;;;20.83;10.15;;;;;;;;;;5042760;28;20135;-67
2023/10/02 09:40:14;;;;;;;21.30;11.45;;;;;;;;;;5033227;28;20944;-65
2023/10/02 09:42:45;;;;;;;20.50;11.10;;;;;;;;;;5034930;28;20039;-68
2023/10/02 09:45:14;;;;;;;20.27;12.15;;;;;;;;;;5034951;28;20020;-67
2023/10/02 09:47:42;;;;;;;19.42;10.68;;;;;;;;;;5047809;28;20873;-67
2023/10/02 09:50:23;;;;;;;18.77;10.80;;;;;;;;;;5048868;28;20755;-72
2023/10/02 09:53:08;;;;;;;19.52;10.40;;;;;;;;;;5047120;28;20024;-73
2023/10/02 09:55:34;;;;;;;;;;;;;;;;;;5032569;28;20028;-70
2023/10/02 09:58:03;;;;;;;21.13;10.82;;;;;;;;;;5039275;28;20447;-67
2023/10/02 10:00:37;;;;;;;20.15;11.55;;;;;;;;;;5048078;28;20225;-66
2023/10/02 10:03:23;;;;;;;21.02;11.50;;;;;;;;;;5048445;28;20139;-66
2023/10/02 10:06:15;;;;;;;20.35;11.38;;;;;;;;;;5035734;28;20090;-66
2023/10/02 10:11:44;;;;;;;19.67;11.23;;;;;;;;;;5049825;28;20926;-67
2023/10/02 10:14:37;;;;;;;20.40;11.43;;;;;;;;;;5045695;28;20146;-66
2023/10/02 10:17:49;;;;;;;18.20;10.85;;;;;;;;;;5053337;28;20910;-67
2023/10/02 10:20:20;;;;;;;20.50;11.10;;;;;;;;;;5041726;28;20044;-67
2023/10/02 10:22:51;;;;;;;21.58;11.52;;;;;;;;;;5050041;28;20552;-67
2023/10/02 10:25:22;;;;;;;21.48;11.60;;;;;;;;;;5049020;28;20032;-67
2023/10/02 10:28:05;;;;;;;22.30;11.30;;;;;;;;;;5046831;28;20074;-66
2023/10/02 10:30:33;;;;;;;19.88;11.20;;;;;;;;;;5040120;28;20020;-66
2023/10/02 10:35:40;;;;;;;21.05;11.38;;;;;;;;;;5043052;28;20154;-66
2023/10/02 10:38:36;;;;;;;21.98;11.10;;;;;;;;;;5043656;28;20028;-66
2023/10/02 10:41:05;;;;;;;17.92;10.63;;;;;;;;;;5047239;28;20032;-67
2023/10/02 10:46:15;;;;;;;;;;;;;;;;;;5046031;28;20050;-66
2023/10/02 10:48:48;;;;;;;18.02;10.25;;;;;;;;;;5046388;28;19916;-65
2023/10/02 10:51:22;;;;;;;18.67;10.60;;;;;;;;;;5047839;28;20032;-65
2023/10/02 10:53:52;;;;;;;21.55;11.65;;;;;;;;;;5042854;28;20020;-65
2023/10/02 10:56:18;;;;;;;19.23;10.40;;;;;;;;;;5044515;28;20020;-65
2023/10/02 10:58:44;;;;;;;18.85;10.77;;;;;;;;;;5049174;28;20020;-65
2023/10/02 11:01:13;;;;;;;22.00;11.82;;;;;;;;;;5038790;28;20024;-65
2023/10/02 11:03:39;;;;;;;22.38;11.23;;;;;;;;;;5044187;28;20028;-65
2023/10/02 11:06:06;;;;;;;19.17;11.32;;;;;;;;;;5046787;28;20274;-65
2023/10/02 11:08:33;;;;;;;19.65;12.02;;;;;;;;;;5062186;28;20031;-65
2023/10/02 11:11:30;;;;;;;18.58;11.30;;;;;;;;;;5083724;28;20089;-67
2023/10/02 11:16:23;;;;;;;18.33;10.23;;;;;;;;;;5083624;28;20025;-66
2023/10/02 11:19:10;;;;;;;22.35;11.35;;;;;;;;;;5083866;28;20110;-67
2023/10/02 11:21:45;;;;;;;15.77;10.98;;;;;;;;;;5046968;28;20227;-67
2023/10/02 11:24:22;;;;;;;18.27;11.20;;;;;;;;;;5052715;28;20036;-67
2023/10/02 11:26:47;;;;;;;17.73;10.30;;;;;;;;;;5039463;28;20200;-67
2023/10/02 11:29:25;;;;;;;17.42;10.15;;;;;;;;;;5043800;28;20887;-67
2023/10/02 11:31:57;;;;;;;19.42;11.13;;;;;;;;;;5072275;28;20022;-67
2023/10/02 11:34:22;;;;;;;19.88;11.80;;;;;;;;;;5045452;28;20058;-67
2023/10/02 11:36:53;;;;;;;17.63;11.00;;;;;;;;;;5045034;28;20025;-67
2023/10/02 11:39:26;;;;;;;21.20;10.75;;;;;;;;;;5043988;28;20025;-67
2023/10/02 11:41:52;;;;;;;21.90;11.47;;;;;;;;;;5050144;28;20029;-67
2023/10/02 11:44:17;;;;;;;19.60;11.82;;;;;;;;;;5046479;28;20166;-67
2023/10/02 11:46:46;;;;;;;21.17;10.80;;;;;;;;;;5047882;28;20167;-67
2023/10/02 11:49:11;;;;;;;17.23;10.25;;;;;;;;;;5043300;28;20585;-67
2023/10/02 11:51:37;;;;;;;18.88;11.68;;;;;;;;;;5049625;28;20017;-67
2023/10/02 11:54:09;;;;;;;18.77;10.90;;;;;;;;;;5071824;28;20034;-67
2023/10/02 11:56:34;;;;;;;18.38;11.35;;;;;;;;;;5086016;28;20111;-67
2023/10/02 11:58:59;;;;;;;26.43;16.50;;;;;;;;;;5078697;28;20390;-67
2023/10/02 12:01:26;;;;;;;19.67;11.10;;;;;;;;;;5084369;28;20277;-67
2023/10/02 12:03:56;;;;;;;18.58;11.18;;;;;;;;;;5084529;28;20036;-67
2023/10/02 12:06:23;;;;;;;21.83;12.60;;;;;;;;;;5093037;28;20143;-67
2023/10/02 12:08:49;;;;;;;20.42;11.32;;;;;;;;;;5078903;28;20028;-67
2023/10/02 12:11:15;;;;;;;20.20;10.50;;;;;;;;;;5041020;28;20074;-67
2023/10/02 12:13:42;;;;;;;20.27;11.80;;;;;;;;;;5050147;28;20896;-68
2023/10/02 12:16:10;;;;;;;21.65;11.77;;;;;;;;;;5051724;28;20188;-67
2023/10/02 12:18:36;;;;;;;25.58;14.45;;;;;;;;;;5078685;28;20032;-67
2023/10/02 12:21:06;;;;;;;22.35;12.30;;;;;;;;;;5075568;28;20035;-67
2023/10/02 12:23:38;;;;;;;21.67;12.50;;;;;;;;;;5078396;28;20056;-66
2023/10/02 12:26:04;;;;;;;22.52;12.30;;;;;;;;;;5080302;28;20035;-67
2023/10/02 12:28:29;;;;;;;21.80;12.75;;;;;;;;;;5043776;28;20031;-67
2023/10/02 12:30:55;;;;;;;23.83;13.77;;;;;;;;;;5033854;28;20021;-67
2023/10/02 12:33:20;;;;;;;19.90;11.88;;;;;;;;;;5045968;28;21043;-67
2023/10/02 12:35:45;;;;;;;17.42;11.73;;;;;;;;;;5040908;28;20047;-67
2023/10/02 12:38:13;;;;;;;17.73;11.43;;;;;;;;;;5038732;28;20023;-67
2023/10/02 12:40:39;;;;;;;72.50;27.33;;;;;;;;;;5049111;28;20059;-68
2023/10/02 12:43:05;;;;;;;18.10;11.30;;;;;;;;;;5048651;28;20034;-66
2023/10/02 12:45:35;;;;;;;22.30;12.20;;;;;;;;;;5048767;28;20024;-67
2023/10/02 12:48:06;;;;;;;19.50;12.30;;;;;;;;;;5049185;28;20758;-66
2023/10/02 12:50:38;;;;;;;19.95;11.35;;;;;;;;;;5047821;28;20889;-66
2023/10/02 12:53:04;;;;;;;22.60;12.30;;;;;;;;;;5091134;28;20474;-67
2023/10/02 12:55:32;;;;;;;21.10;11.57;;;;;;;;;;5090596;28;20032;-66
2023/10/02 12:57:57;;;;;;;22.70;12.00;;;;;;;;;;5081983;28;20035;-66
2023/10/02 13:00:24;;;;;;;17.73;10.87;;;;;;;;;;5086549;28;20406;-66
2023/10/02 13:02:49;;;;;;;19.27;11.75;;;;;;;;;;5082868;28;20024;-66
2023/10/02 13:05:14;;;;;;;19.80;11.30;;;;;;;;;;5076873;28;20167;-67
2023/10/02 13:07:41;;;;;;;20.73;11.87;;;;;;;;;;5049224;28;20027;-66
2023/10/02 13:10:08;;;;;;;19.63;11.18;;;;;;;;;;5054615;28;21206;-67
2023/10/02 13:12:34;;;;;;;18.63;11.80;;;;;;;;;;5085911;28;20390;-66
2023/10/02 13:14:59;;;;;;;21.50;11.52;;;;;;;;;;5088166;28;20121;-67
2023/10/02 13:17:24;;;;;;;18.88;11.57;;;;;;;;;;5089256;28;20024;-66
2023/10/02 13:19:50;;;;;;;17.58;11.05;;;;;;;;;;5080663;28;20913;-66
2023/10/02 13:22:15;;;;;;;19.23;12.77;;;;;;;;;;5088737;28;20467;-66
2023/10/02 13:24:42;;;;;;;21.50;12.63;;;;;;;;;;5090583;28;20297;-66
2023/10/02 13:27:07;;;;;;;20.02;12.05;;;;;;;;;;5089789;28;20277;-66
2023/10/02 13:29:34;;;;;;;17.30;11.87;;;;;;;;;;5089509;28;20082;-66
2023/10/02 13:32:01;;;;;;;21.63;11.43;;;;;;;;;;5087944;28;20272;-67
2023/10/02 13:34:26;;;;;;;20.75;11.93;;;;;;;;;;5090219;28;20020;-66
2023/10/02 13:36:51;;;;;;;22.40;12.90;;;;;;;;;;5084599;28;20077;-67
2023/10/02 13:39:17;;;;;;;18.80;11.97;;;;;;;;;;5084730;28;20365;-67
2023/10/02 13:41:42;;;;;;;19.58;12.60;;;;;;;;;;5035869;28;20020;-67
2023/10/02 13:44:07;;;;;;;18.73;11.37;;;;;;;;;;5041412;28;20031;-67
2023/10/02 13:46:38;;;;;;;22.83;12.88;;;;;;;;;;5038478;28;20132;-67
2023/10/02 13:49:04;;;;;;;26.38;13.50;;;;;;;;;;5051725;28;20023;-67
2023/10/02 13:51:29;;;;;;;22.30;13.38;;;;;;;;;;5087824;28;20036;-67
2023/10/02 13:53:56;;;;;;;21.52;13.10;;;;;;;;;;5048001;28;20842;-66
2023/10/02 13:56:25;;;;;;;23.67;11.70;;;;;;;;;;5083389;28;20024;-67
2023/10/02 13:58:50;;;;;;;21.85;12.45;;;;;;;;;;5083316;28;20511;-67
2023/10/02 14:01:16;;;;;;;21.48;12.40;;;;;;;;;;5088533;28;20037;-66
2023/10/02 14:03:45;;;;;;;19.52;11.95;;;;;;;;;;5082617;28;20039;-66
2023/10/02 14:06:12;;;;;;;20.45;12.57;;;;;;;;;;5088822;28;20035;-66
2023/10/02 14:08:39;;;;;;;20.60;11.82;;;;;;;;;;5087587;28;20081;-66
2023/10/02 14:11:04;;;;;;;20.02;12.07;;;;;;;;;;5076811;28;20916;-67
2023/10/02 14:13:31;;;;;;;20.98;11.98;;;;;;;;;;5082629;28;20029;-67
2023/10/02 14:16:01;;;;;;;19.10;12.52;;;;;;;;;;5079777;28;20490;-67
2023/10/02 14:18:28;;;;;;;20.25;13.15;;;;;;;;;;5079275;28;20027;-67
2023/10/02 14:21:00;;;;;;;21.17;12.60;;;;;;;;;;5088491;28;20024;-67
2023/10/02 14:23:28;;;;;;;20.92;12.82;;;;;;;;;;5076209;28;20482;-67
2023/10/02 14:25:59;;;;;;;19.02;11.77;;;;;;;;;;5082380;28;20141;-67
2023/10/02 14:28:24;;;;;;;23.77;11.77;;;;;;;;;;5051261;28;20157;-67
2023/10/02 14:30:50;;;;;;;19.65;12.23;;;;;;;;;;5048414;28;20813;-67
2023/10/02 14:33:15;;;;;;;19.60;11.60;;;;;;;;;;5048019;28;20102;-66
2023/10/02 14:35:40;;;;;;;19.90;11.73;;;;;;;;;;5046654;28;20875;-66
2023/10/02 14:38:06;;;;;;;19.03;11.50;;;;;;;;;;5045338;28;20485;-66
2023/10/02 14:40:33;;;;;;;20.63;11.40;;;;;;;;;;5071665;28;21112;-66
2023/10/02 14:43:02;;;;;;;18.38;11.10;;;;;;;;;;5046807;28;20044;-66
2023/10/02 14:45:30;;;;;;;18.95;11.88;;;;;;;;;;5043485;28;20032;-66
2023/10/02 14:47:56;;;;;;;19.17;11.48;;;;;;;;;;5079475;28;20043;-67
2023/10/02 14:50:25;;;;;;;17.63;11.82;;;;;;;;;;5057422;28;20754;-66
2023/10/02 14:52:52;;;;;;;16.23;10.80;;;;;;;;;;5046012;28;20810;-66
2023/10/02 14:55:18;;;;;;;18.52;11.82;;;;;;;;;;5047980;28;20089;-66
2023/10/02 14:57:45;;;;;;;21.65;11.65;;;;;;;;;;5047563;28;20276;-66
2023/10/02 15:00:11;;;;;;;19.90;11.27;;;;;;;;;;5061049;28;20493;-66
2023/10/02 15:02:36;;;;;;;18.48;10.90;;;;;;;;;;5084733;28;20027;-66
2023/10/02 15:05:01;;;;;;;18.27;11.63;;;;;;;;;;5085945;28;20111;-66
2023/10/02 15:07:29;;;;;;;21.30;11.13;;;;;;;;;;5080375;28;20055;-67
2023/10/02 15:09:55;;;;;;;17.10;10.63;;;;;;;;;;5077686;28;20473;-67
2023/10/02 15:12:20;;;;;;;18.35;11.57;;;;;;;;;;5078474;28;20035;-67
2023/10/02 15:14:46;;;;;;;20.83;12.05;;;;;;;;;;5076954;28;20379;-67
2023/10/02 15:17:11;;;;;;;21.17;11.07;;;;;;;;;;5076795;28;20391;-67
2023/10/02 15:19:37;;;;;;;20.83;12.98;;;;;;;;;;5070211;28;20134;-66